Puyallup, WA

2:58 PM PDT on April 26, 2018 (GMT -0700)
Pierce County - Thun Field

Weather History for KPLU - March, 2014

Change the Weather History Date:

Monday, March 24, 2014

  Actual Average (KTCM) Record (KTCM)
Temperature  
Mean Temperature 50 °F -  
Max Temperature 68 °F 52 °F 68 °F (2010)
Min Temperature 32 °F 35 °F 19 °F (1965)
Degree Days  
Heating Degree Days 15    
Moisture  
Dew Point 38 °F    
Average Humidity 73    
Maximum Humidity 100    
Minimum Humidity 33    
Precipitation  
Precipitation 0.00 in - - ()
Sea Level Pressure  
Sea Level Pressure 30.06 in    
Wind  
Wind Speed 0 mph (NW)    
Max Wind Speed 5 mph    
Max Gust Speed -    
Visibility 10 miles    
Events      
Averages and records for this station are not official NWS values.
T = Trace of Precipitation, MM = Missing Value Source: NWS Daily Summary

Daily Weather History Graph

Daily Weather History Graph

Search for Another Location

Airport or City:

Astronomy

Mar. 24, 2014 Rise Set
Actual Time 7:03 AM PDT 7:27 PM PDT
Civil Twilight 6:33 AM PDT 7:58 PM PDT
Nautical Twilight 5:57 AM PDT 8:34 PM PDT
Astronomical Twilight 5:20 AM PDT 9:11 PM PDT
Moon 3:00 AM PDT (3/24) 12:37 PM PDT (3/24)
Length of Visible Light 13h 24m
Length of Day
12h 23m
Last Quarter, 42% of the Moon is Illuminated
Mar 24
Last Quarter
Mar 30
New
Apr 7
First Quarter
Apr 15
Full
Apr 22
Last Quarter

Hourly Weather History & Observations

Time (PDT) Temp. Dew Point Humidity Pressure Visibility Wind Dir Wind Speed Gust Speed Precip Events Conditions
12:15 AM 37.4 °F 37.4 °F 100% 30.24 in 10.0 mi Calm Calm - N/A   Unknown
12:35 AM 35.6 °F 35.6 °F 100% 30.23 in 10.0 mi Calm Calm - N/A   Unknown
12:55 AM 35.6 °F 35.6 °F 100% 30.23 in 10.0 mi Calm Calm - N/A   Unknown
1:15 AM 35.6 °F 35.6 °F 100% 30.24 in 10.0 mi Calm Calm - N/A   Unknown
1:35 AM 35.6 °F 35.6 °F 100% 30.24 in 10.0 mi Calm Calm - N/A   Unknown
1:55 AM 37.4 °F 37.4 °F 100% 30.22 in 10.0 mi Calm Calm - N/A   Unknown
2:15 AM 37.4 °F 37.4 °F 100% 30.21 in 10.0 mi Calm Calm - N/A   Unknown
2:35 AM 35.6 °F 35.6 °F 100% 30.20 in 10.0 mi Calm Calm - N/A   Unknown
2:55 AM 35.6 °F 35.6 °F 100% 30.21 in 10.0 mi Calm Calm - N/A   Unknown
3:15 AM 35.6 °F 35.6 °F 100% 30.21 in 10.0 mi Calm Calm - N/A   Unknown
3:35 AM 35.6 °F 35.6 °F 100% 30.20 in 10.0 mi Calm Calm - N/A   Unknown
3:55 AM 35.6 °F 35.6 °F 100% 30.20 in 10.0 mi Calm Calm - N/A   Unknown
4:15 AM 35.6 °F 35.6 °F 100% 30.19 in 10.0 mi Calm Calm - N/A   Unknown
4:35 AM 33.8 °F 33.8 °F 100% 30.18 in 10.0 mi Calm Calm - N/A   Unknown
4:55 AM 33.8 °F 33.8 °F 100% 30.17 in 10.0 mi Calm Calm - N/A   Unknown
5:15 AM 32.0 °F 32.0 °F 100% 30.17 in 6.0 mi Calm Calm - N/A   Mist
5:35 AM 32.0 °F 32.0 °F 100% 30.16 in 9.0 mi Calm Calm - N/A   Unknown
5:55 AM 32.0 °F 32.0 °F 100% 30.16 in 3.0 mi Calm Calm - N/A   Mist
6:15 AM 32.0 °F 32.0 °F 100% 30.15 in 5.0 mi Calm Calm - N/A   Mist
6:35 AM 32.0 °F 32.0 °F 100% 30.14 in 9.0 mi Calm Calm - N/A   Unknown
6:55 AM 32.0 °F 32.0 °F 100% 30.14 in 8.0 mi Calm Calm - N/A   Unknown
7:15 AM 32.0 °F 32.0 °F 100% 30.14 in 7.0 mi Calm Calm - N/A   Unknown
7:35 AM 32.0 °F 32.0 °F 100% 30.13 in 6.0 mi Calm Calm - N/A   Mist
7:55 AM 32.0 °F 32.0 °F 100% 30.12 in 8.0 mi Calm Calm - N/A   Unknown
8:15 AM 33.8 °F 33.8 °F 100% 30.11 in 10.0 mi Calm Calm - N/A   Unknown
8:35 AM 35.6 °F 35.6 °F 100% 30.11 in 10.0 mi Calm Calm - N/A   Unknown
8:55 AM 37.4 °F 37.4 °F 100% 30.11 in 10.0 mi Calm Calm - N/A   Unknown
9:15 AM 41.0 °F 37.4 °F 87% 30.11 in 10.0 mi Calm Calm - N/A   Unknown
9:35 AM 42.8 °F 37.4 °F 81% 30.10 in 10.0 mi Calm Calm - N/A   Unknown
9:55 AM 44.6 °F 39.2 °F 81% 30.10 in 10.0 mi Calm Calm - N/A   Unknown
10:15 AM 46.4 °F 39.2 °F 76% 30.10 in 10.0 mi Calm Calm - N/A   Unknown
10:35 AM 48.2 °F 39.2 °F 71% 30.09 in 10.0 mi Calm Calm - N/A   Unknown
10:55 AM 50.0 °F 37.4 °F 62% 30.09 in 10.0 mi Calm Calm - N/A   Unknown
11:15 AM 51.8 °F 37.4 °F 58% 30.08 in 10.0 mi Calm Calm - N/A   Unknown
11:35 AM 53.6 °F 39.2 °F 58% 30.07 in 10.0 mi NNW 3.5 mph - N/A   Unknown
11:55 AM 55.4 °F 39.2 °F 54% 30.07 in 10.0 mi NNW 4.6 mph - N/A   Unknown
12:15 PM 57.2 °F 39.2 °F 51% 30.06 in 10.0 mi Calm Calm - N/A   Unknown
12:35 PM 57.2 °F 39.2 °F 51% 30.05 in 10.0 mi NNW 3.5 mph - N/A   Unknown
12:55 PM 59.0 °F 39.2 °F 48% 30.05 in 10.0 mi NNW 4.6 mph - N/A   Unknown
1:15 PM 59.0 °F 39.2 °F 48% 30.04 in 10.0 mi NW 4.6 mph - N/A   Unknown
1:35 PM 62.6 °F 41.0 °F 45% 30.03 in 10.0 mi NNW 4.6 mph - N/A   Unknown
1:55 PM 62.6 °F 41.0 °F 45% 30.03 in 10.0 mi NW 3.5 mph - N/A   Unknown
2:15 PM 62.6 °F 39.2 °F 42% 30.02 in 10.0 mi WNW 3.5 mph - N/A   Unknown
2:35 PM 62.6 °F 39.2 °F 42% 30.01 in 10.0 mi Calm Calm - N/A   Unknown
2:55 PM 64.4 °F 39.2 °F 40% 30.00 in 10.0 mi Calm Calm - N/A   Unknown
3:15 PM 64.4 °F 39.2 °F 40% 29.99 in 10.0 mi Calm Calm - N/A   Unknown
3:35 PM 66.2 °F 37.4 °F 35% 29.98 in 10.0 mi Calm Calm - N/A   Unknown
3:55 PM 66.2 °F 39.2 °F 37% 29.97 in 10.0 mi Calm Calm - N/A   Unknown
4:15 PM 66.2 °F 37.4 °F 35% 29.96 in 10.0 mi Calm Calm - N/A   Unknown
4:35 PM 68.0 °F 37.4 °F 33% 29.96 in 10.0 mi Calm Calm - N/A   Unknown
4:55 PM 68.0 °F 39.2 °F 35% 29.95 in 10.0 mi North 3.5 mph - N/A   Unknown
5:15 PM 66.2 °F 37.4 °F 35% 29.94 in 10.0 mi Calm Calm - N/A   Unknown
5:35 PM 66.2 °F 41.0 °F 40% 29.94 in 10.0 mi NNW 4.6 mph - N/A   Unknown
5:55 PM 66.2 °F 37.4 °F 35% 29.94 in 10.0 mi WNW 4.6 mph - N/A   Unknown
6:15 PM 66.2 °F 37.4 °F 35% 29.93 in 10.0 mi Calm Calm - N/A   Unknown
6:35 PM 64.4 °F 39.2 °F 40% 29.93 in 10.0 mi Calm Calm - N/A   Unknown
6:55 PM 62.6 °F 41.0 °F 45% 29.93 in 10.0 mi Calm Calm - N/A   Unknown
7:15 PM 57.2 °F 42.8 °F 59% 29.93 in 10.0 mi Calm Calm - N/A   Unknown
7:35 PM 55.4 °F 42.8 °F 63% 29.92 in 10.0 mi Calm Calm - N/A   Unknown
7:55 PM 55.4 °F 42.8 °F 63% 29.91 in 10.0 mi Calm Calm - N/A   Unknown
8:15 PM 50.0 °F 44.6 °F 82% 29.92 in 10.0 mi Calm Calm - N/A   Unknown
8:35 PM 50.0 °F 44.6 °F 82% 29.92 in 10.0 mi Calm Calm - N/A   Unknown
8:55 PM 48.2 °F 44.6 °F 87% 29.92 in 10.0 mi Calm Calm - N/A   Unknown
9:15 PM 50.0 °F 41.0 °F 71% 29.93 in 10.0 mi Calm Calm - N/A   Unknown
9:35 PM 50.0 °F 42.8 °F 76% 29.93 in 10.0 mi Calm Calm - N/A   Unknown
9:55 PM 51.8 °F 41.0 °F 67% 29.93 in 10.0 mi Calm Calm - N/A   Unknown
10:15 PM 51.8 °F 41.0 °F 67% 29.92 in 10.0 mi Calm Calm - N/A   Unknown
10:35 PM 50.0 °F 44.6 °F 82% 29.92 in 10.0 mi Calm Calm - N/A   Unknown
10:55 PM 50.0 °F 41.0 °F 71% 29.92 in 10.0 mi Calm Calm - N/A   Unknown
11:15 PM 50.0 °F 35.6 °F 58% 29.93 in 10.0 mi Calm Calm - N/A   Unknown
11:35 PM 50.0 °F 35.6 °F 58% 29.93 in 10.0 mi Calm Calm - N/A   Unknown
11:55 PM 48.2 °F 39.2 °F 71% 29.92 in 10.0 mi Calm Calm - N/A   Unknown